sensor_id;sensor_type;location;lat;lon;timestamp;temperature;humidity
51725;DHT22;37801;53.224;6.552;2022-10-31T00:02:00;13.30;99.90
51725;DHT22;37801;53.224;6.552;2022-10-31T00:04:26;13.30;99.90
51725;DHT22;37801;53.224;6.552;2022-10-31T00:06:52;13.30;99.90
51725;DHT22;37801;53.224;6.552;2022-10-31T00:09:17;13.20;99.90
51725;DHT22;37801;53.224;6.552;2022-10-31T00:11:43;13.20;99.90
51725;DHT22;37801;53.224;6.552;2022-10-31T00:14:09;13.20;99.90
51725;DHT22;37801;53.224;6.552;2022-10-31T00:16:34;13.10;99.90
51725;DHT22;37801;53.224;6.552;2022-10-31T00:19:02;13.10;99.90
51725;DHT22;37801;53.224;6.552;2022-10-31T00:21:29;13.10;99.90
51725;DHT22;37801;53.224;6.552;2022-10-31T00:23:56;13.10;99.90
51725;DHT22;37801;53.224;6.552;2022-10-31T00:26:22;13.10;99.90
51725;DHT22;37801;53.224;6.552;2022-10-31T00:28:48;13.10;99.90
51725;DHT22;37801;53.224;6.552;2022-10-31T00:31:14;13.10;99.90
51725;DHT22;37801;53.224;6.552;2022-10-31T00:33:41;13.00;99.90
51725;DHT22;37801;53.224;6.552;2022-10-31T00:36:09;13.10;99.90
51725;DHT22;37801;53.224;6.552;2022-10-31T00:38:36;13.00;99.90
51725;DHT22;37801;53.224;6.552;2022-10-31T00:41:01;13.00;99.90
51725;DHT22;37801;53.224;6.552;2022-10-31T00:43:27;13.00;99.90
51725;DHT22;37801;53.224;6.552;2022-10-31T00:45:53;13.00;99.90
51725;DHT22;37801;53.224;6.552;2022-10-31T00:48:18;13.00;99.90
51725;DHT22;37801;53.224;6.552;2022-10-31T00:50:45;13.00;99.90
51725;DHT22;37801;53.224;6.552;2022-10-31T00:53:10;13.00;99.90
51725;DHT22;37801;53.224;6.552;2022-10-31T00:55:36;13.00;99.90
51725;DHT22;37801;53.224;6.552;2022-10-31T00:58:02;13.00;99.90
51725;DHT22;37801;53.224;6.552;2022-10-31T01:00:27;12.90;99.90
51725;DHT22;37801;53.224;6.552;2022-10-31T01:02:53;13.00;99.90
51725;DHT22;37801;53.224;6.552;2022-10-31T01:05:19;13.00;99.90
51725;DHT22;37801;53.224;6.552;2022-10-31T01:07:45;13.00;99.90
51725;DHT22;37801;53.224;6.552;2022-10-31T01:10:11;13.00;99.90
51725;DHT22;37801;53.224;6.552;2022-10-31T01:12:42;13.00;99.90
51725;DHT22;37801;53.224;6.552;2022-10-31T01:15:10;12.90;99.90
51725;DHT22;37801;53.224;6.552;2022-10-31T01:17:37;13.00;99.90
51725;DHT22;37801;53.224;6.552;2022-10-31T01:20:04;13.00;99.90
51725;DHT22;37801;53.224;6.552;2022-10-31T01:22:30;12.90;99.90
51725;DHT22;37801;53.224;6.552;2022-10-31T01:24:55;12.90;99.90
51725;DHT22;37801;53.224;6.552;2022-10-31T01:27:21;12.90;99.90
51725;DHT22;37801;53.224;6.552;2022-10-31T01:29:47;12.90;99.90
51725;DHT22;37801;53.224;6.552;2022-10-31T01:32:13;12.90;99.90
51725;DHT22;37801;53.224;6.552;2022-10-31T01:34:38;12.90;99.90
51725;DHT22;37801;53.224;6.552;2022-10-31T01:37:04;13.00;99.90
51725;DHT22;37801;53.224;6.552;2022-10-31T01:39:30;13.00;99.90
51725;DHT22;37801;53.224;6.552;2022-10-31T01:41:55;12.90;99.90
51725;DHT22;37801;53.224;6.552;2022-10-31T01:51:51;12.90;99.90
51725;DHT22;37801;53.224;6.552;2022-10-31T01:54:22;13.00;99.90
51725;DHT22;37801;53.224;6.552;2022-10-31T01:56:50;12.90;99.90
51725;DHT22;37801;53.224;6.552;2022-10-31T01:59:20;12.90;99.90
51725;DHT22;37801;53.224;6.552;2022-10-31T02:01:47;12.90;99.90
51725;DHT22;37801;53.224;6.552;2022-10-31T02:04:14;12.90;99.90
51725;DHT22;37801;53.224;6.552;2022-10-31T02:06:47;12.80;99.90
51725;DHT22;37801;53.224;6.552;2022-10-31T02:09:15;12.80;99.90
51725;DHT22;37801;53.224;6.552;2022-10-31T02:11:43;12.80;99.90
51725;DHT22;37801;53.224;6.552;2022-10-31T02:14:09;12.80;99.90
51725;DHT22;37801;53.224;6.552;2022-10-31T02:16:35;12.70;99.90
51725;DHT22;37801;53.224;6.552;2022-10-31T02:19:02;12.80;99.90
51725;DHT22;37801;53.224;6.552;2022-10-31T02:30:08;12.70;99.90
51725;DHT22;37801;53.224;6.552;2022-10-31T02:32:59;12.70;99.90
51725;DHT22;37801;53.224;6.552;2022-10-31T02:35:35;12.70;99.90
51725;DHT22;37801;53.224;6.552;2022-10-31T02:38:37;12.70;99.90
51725;DHT22;37801;53.224;6.552;2022-10-31T02:41:09;12.70;99.90
51725;DHT22;37801;53.224;6.552;2022-10-31T02:43:52;12.70;99.90
51725;DHT22;37801;53.224;6.552;2022-10-31T02:46:32;12.60;99.90
51725;DHT22;37801;53.224;6.552;2022-10-31T02:49:10;12.60;99.90
51725;DHT22;37801;53.224;6.552;2022-10-31T02:51:37;12.60;99.90
51725;DHT22;37801;53.224;6.552;2022-10-31T02:54:05;12.60;99.90
51725;DHT22;37801;53.224;6.552;2022-10-31T02:56:31;12.60;99.90
51725;DHT22;37801;53.224;6.552;2022-10-31T02:59:04;12.60;99.90
51725;DHT22;37801;53.224;6.552;2022-10-31T03:07:02;12.60;99.90
51725;DHT22;37801;53.224;6.552;2022-10-31T03:12:34;12.60;99.90
51725;DHT22;37801;53.224;6.552;2022-10-31T03:20:13;12.60;99.90
51725;DHT22;37801;53.224;6.552;2022-10-31T03:22:41;12.50;99.90
51725;DHT22;37801;53.224;6.552;2022-10-31T03:25:09;12.50;99.90
51725;DHT22;37801;53.224;6.552;2022-10-31T03:27:36;12.50;99.90
51725;DHT22;37801;53.224;6.552;2022-10-31T03:30:05;12.50;99.90
51725;DHT22;37801;53.224;6.552;2022-10-31T03:32:38;12.40;99.90
51725;DHT22;37801;53.224;6.552;2022-10-31T03:35:07;12.40;99.90
51725;DHT22;37801;53.224;6.552;2022-10-31T03:37:35;12.30;99.90
51725;DHT22;37801;53.224;6.552;2022-10-31T03:40:03;12.40;99.90
51725;DHT22;37801;53.224;6.552;2022-10-31T03:42:32;12.30;99.90
51725;DHT22;37801;53.224;6.552;2022-10-31T03:45:05;12.30;99.90
51725;DHT22;37801;53.224;6.552;2022-10-31T03:47:32;12.30;99.90
51725;DHT22;37801;53.224;6.552;2022-10-31T03:49:59;12.30;99.90
51725;DHT22;37801;53.224;6.552;2022-10-31T03:52:35;12.30;99.90
51725;DHT22;37801;53.224;6.552;2022-10-31T03:55:19;12.20;99.90
51725;DHT22;37801;53.224;6.552;2022-10-31T04:00:51;12.20;99.90
51725;DHT22;37801;53.224;6.552;2022-10-31T04:03:30;12.20;99.90
51725;DHT22;37801;53.224;6.552;2022-10-31T04:06:01;12.20;99.90
51725;DHT22;37801;53.224;6.552;2022-10-31T04:08:30;12.20;99.90
51725;DHT22;37801;53.224;6.552;2022-10-31T04:11:00;12.20;99.90
51725;DHT22;37801;53.224;6.552;2022-10-31T04:13:29;12.20;99.90
51725;DHT22;37801;53.224;6.552;2022-10-31T04:15:55;12.20;99.90
51725;DHT22;37801;53.224;6.552;2022-10-31T04:18:24;12.20;99.90
51725;DHT22;37801;53.224;6.552;2022-10-31T04:21:03;12.10;99.90
51725;DHT22;37801;53.224;6.552;2022-10-31T04:23:29;12.00;99.90
51725;DHT22;37801;53.224;6.552;2022-10-31T04:25:56;12.10;99.90
51725;DHT22;37801;53.224;6.552;2022-10-31T04:28:22;12.10;99.90
51725;DHT22;37801;53.224;6.552;2022-10-31T04:30:48;12.00;99.90
51725;DHT22;37801;53.224;6.552;2022-10-31T04:33:14;12.00;99.90
51725;DHT22;37801;53.224;6.552;2022-10-31T04:35:40;12.00;99.90
51725;DHT22;37801;53.224;6.552;2022-10-31T04:38:06;12.00;99.90
51725;DHT22;37801;53.224;6.552;2022-10-31T04:40:31;12.00;99.90
51725;DHT22;37801;53.224;6.552;2022-10-31T04:42:57;12.00;99.90
51725;DHT22;37801;53.224;6.552;2022-10-31T04:45:23;12.00;99.90
51725;DHT22;37801;53.224;6.552;2022-10-31T04:47:48;12.00;99.90
51725;DHT22;37801;53.224;6.552;2022-10-31T04:50:14;12.00;99.90
51725;DHT22;37801;53.224;6.552;2022-10-31T04:52:44;12.00;99.90
51725;DHT22;37801;53.224;6.552;2022-10-31T04:55:11;12.00;99.90
51725;DHT22;37801;53.224;6.552;2022-10-31T04:57:45;12.00;99.90
51725;DHT22;37801;53.224;6.552;2022-10-31T05:00:12;12.00;99.90
51725;DHT22;37801;53.224;6.552;2022-10-31T05:02:50;12.00;99.90
51725;DHT22;37801;53.224;6.552;2022-10-31T05:05:17;11.90;99.90
51725;DHT22;37801;53.224;6.552;2022-10-31T05:07:45;11.90;99.90
51725;DHT22;37801;53.224;6.552;2022-10-31T05:10:16;11.90;99.90
51725;DHT22;37801;53.224;6.552;2022-10-31T05:12:54;11.90;99.90
51725;DHT22;37801;53.224;6.552;2022-10-31T05:15:21;11.90;99.90
51725;DHT22;37801;53.224;6.552;2022-10-31T05:17:47;11.90;99.90
51725;DHT22;37801;53.224;6.552;2022-10-31T05:20:15;11.90;99.90
51725;DHT22;37801;53.224;6.552;2022-10-31T05:22:45;11.90;99.90
51725;DHT22;37801;53.224;6.552;2022-10-31T05:25:12;11.80;99.90
51725;DHT22;37801;53.224;6.552;2022-10-31T05:27:42;11.80;99.90
51725;DHT22;37801;53.224;6.552;2022-10-31T05:30:10;11.80;99.90
51725;DHT22;37801;53.224;6.552;2022-10-31T05:32:47;11.80;99.90
51725;DHT22;37801;53.224;6.552;2022-10-31T05:35:16;11.80;99.90
51725;DHT22;37801;53.224;6.552;2022-10-31T05:37:42;11.70;99.90
51725;DHT22;37801;53.224;6.552;2022-10-31T05:40:10;11.70;99.90
51725;DHT22;37801;53.224;6.552;2022-10-31T05:42:38;11.70;99.90
51725;DHT22;37801;53.224;6.552;2022-10-31T05:45:05;11.80;99.90
51725;DHT22;37801;53.224;6.552;2022-10-31T05:47:31;11.70;99.90
51725;DHT22;37801;53.224;6.552;2022-10-31T05:49:57;11.70;99.90
51725;DHT22;37801;53.224;6.552;2022-10-31T05:52:22;11.70;99.90
51725;DHT22;37801;53.224;6.552;2022-10-31T05:54:48;11.70;99.90
51725;DHT22;37801;53.224;6.552;2022-10-31T05:57:14;11.70;99.90
51725;DHT22;37801;53.224;6.552;2022-10-31T05:59:39;11.70;99.90
51725;DHT22;37801;53.224;6.552;2022-10-31T06:02:05;11.60;99.90
51725;DHT22;37801;53.224;6.552;2022-10-31T06:04:31;11.70;99.90
51725;DHT22;37801;53.224;6.552;2022-10-31T06:06:57;11.60;99.90
51725;DHT22;37801;53.224;6.552;2022-10-31T06:09:23;11.70;99.90
51725;DHT22;37801;53.224;6.552;2022-10-31T06:11:49;11.70;99.90
51725;DHT22;37801;53.224;6.552;2022-10-31T06:14:14;11.60;99.90
51725;DHT22;37801;53.224;6.552;2022-10-31T06:16:40;11.60;99.90
51725;DHT22;37801;53.224;6.552;2022-10-31T06:19:05;11.60;99.90
51725;DHT22;37801;53.224;6.552;2022-10-31T06:21:31;11.60;99.90
51725;DHT22;37801;53.224;6.552;2022-10-31T06:23:57;11.60;99.90
51725;DHT22;37801;53.224;6.552;2022-10-31T06:26:23;11.60;99.90
51725;DHT22;37801;53.224;6.552;2022-10-31T06:28:48;11.60;99.90
51725;DHT22;37801;53.224;6.552;2022-10-31T06:31:14;11.60;99.90
51725;DHT22;37801;53.224;6.552;2022-10-31T06:33:43;11.60;99.90
51725;DHT22;37801;53.224;6.552;2022-10-31T06:36:09;11.60;99.90
51725;DHT22;37801;53.224;6.552;2022-10-31T06:38:35;11.60;99.90
51725;DHT22;37801;53.224;6.552;2022-10-31T06:41:05;11.60;99.90
51725;DHT22;37801;53.224;6.552;2022-10-31T06:43:31;11.60;99.90
51725;DHT22;37801;53.224;6.552;2022-10-31T06:45:57;11.60;99.90
51725;DHT22;37801;53.224;6.552;2022-10-31T06:48:23;11.60;99.90
51725;DHT22;37801;53.224;6.552;2022-10-31T06:50:49;11.60;99.90
51725;DHT22;37801;53.224;6.552;2022-10-31T06:53:15;11.70;99.90
51725;DHT22;37801;53.224;6.552;2022-10-31T06:55:41;11.70;99.90
51725;DHT22;37801;53.224;6.552;2022-10-31T06:58:09;11.70;99.90
51725;DHT22;37801;53.224;6.552;2022-10-31T07:00:36;11.70;99.90
51725;DHT22;37801;53.224;6.552;2022-10-31T07:03:07;11.70;99.90
51725;DHT22;37801;53.224;6.552;2022-10-31T07:05:34;11.70;99.90
51725;DHT22;37801;53.224;6.552;2022-10-31T07:08:02;11.80;99.90
51725;DHT22;37801;53.224;6.552;2022-10-31T07:10:30;11.70;99.90
51725;DHT22;37801;53.224;6.552;2022-10-31T07:12:58;11.80;99.90
51725;DHT22;37801;53.224;6.552;2022-10-31T07:15:25;11.70;99.90
51725;DHT22;37801;53.224;6.552;2022-10-31T07:17:51;11.70;99.90
51725;DHT22;37801;53.224;6.552;2022-10-31T07:20:16;11.70;99.90
51725;DHT22;37801;53.224;6.552;2022-10-31T07:22:42;11.70;99.90
51725;DHT22;37801;53.224;6.552;2022-10-31T07:25:08;11.70;99.90
51725;DHT22;37801;53.224;6.552;2022-10-31T07:27:38;11.70;99.90
51725;DHT22;37801;53.224;6.552;2022-10-31T07:30:05;11.70;99.90
51725;DHT22;37801;53.224;6.552;2022-10-31T07:32:38;11.70;99.90
51725;DHT22;37801;53.224;6.552;2022-10-31T07:35:05;11.60;99.90
51725;DHT22;37801;53.224;6.552;2022-10-31T07:37:30;11.70;99.90
51725;DHT22;37801;53.224;6.552;2022-10-31T07:39:56;11.70;99.90
51725;DHT22;37801;53.224;6.552;2022-10-31T07:42:22;11.70;99.90
51725;DHT22;37801;53.224;6.552;2022-10-31T07:44:47;11.70;99.90
51725;DHT22;37801;53.224;6.552;2022-10-31T07:47:13;11.70;99.90
51725;DHT22;37801;53.224;6.552;2022-10-31T07:49:39;11.70;99.90
51725;DHT22;37801;53.224;6.552;2022-10-31T07:52:04;11.80;99.90
51725;DHT22;37801;53.224;6.552;2022-10-31T07:54:30;11.80;99.90
51725;DHT22;37801;53.224;6.552;2022-10-31T07:56:55;11.80;99.90
51725;DHT22;37801;53.224;6.552;2022-10-31T07:59:21;11.80;99.90
51725;DHT22;37801;53.224;6.552;2022-10-31T08:01:47;11.80;99.90
51725;DHT22;37801;53.224;6.552;2022-10-31T08:04:12;11.80;99.90
51725;DHT22;37801;53.224;6.552;2022-10-31T08:06:38;11.90;99.90
51725;DHT22;37801;53.224;6.552;2022-10-31T08:09:04;11.90;99.90
51725;DHT22;37801;53.224;6.552;2022-10-31T08:11:29;12.00;99.90
51725;DHT22;37801;53.224;6.552;2022-10-31T08:13:55;12.00;99.90
51725;DHT22;37801;53.224;6.552;2022-10-31T08:16:21;12.00;99.90
51725;DHT22;37801;53.224;6.552;2022-10-31T08:18:46;12.10;99.90
51725;DHT22;37801;53.224;6.552;2022-10-31T08:21:13;12.10;99.90
51725;DHT22;37801;53.224;6.552;2022-10-31T08:23:38;12.10;99.90
51725;DHT22;37801;53.224;6.552;2022-10-31T08:26:04;12.10;99.90
51725;DHT22;37801;53.224;6.552;2022-10-31T08:28:31;12.20;99.90
51725;DHT22;37801;53.224;6.552;2022-10-31T08:30:58;12.20;99.90
51725;DHT22;37801;53.224;6.552;2022-10-31T08:33:24;12.10;99.90
51725;DHT22;37801;53.224;6.552;2022-10-31T08:35:50;12.10;99.90
51725;DHT22;37801;53.224;6.552;2022-10-31T08:38:16;12.10;99.90
51725;DHT22;37801;53.224;6.552;2022-10-31T08:40:42;12.20;99.90
51725;DHT22;37801;53.224;6.552;2022-10-31T08:43:12;12.20;99.90
51725;DHT22;37801;53.224;6.552;2022-10-31T08:45:38;12.20;99.90
51725;DHT22;37801;53.224;6.552;2022-10-31T08:48:06;12.10;99.90
51725;DHT22;37801;53.224;6.552;2022-10-31T08:50:34;12.20;99.90
51725;DHT22;37801;53.224;6.552;2022-10-31T08:53:04;12.20;99.90
51725;DHT22;37801;53.224;6.552;2022-10-31T08:55:33;12.20;99.90
51725;DHT22;37801;53.224;6.552;2022-10-31T08:57:59;12.20;99.90
51725;DHT22;37801;53.224;6.552;2022-10-31T09:00:25;12.30;99.90
51725;DHT22;37801;53.224;6.552;2022-10-31T09:03:01;12.20;99.90
51725;DHT22;37801;53.224;6.552;2022-10-31T09:05:27;12.30;99.90
51725;DHT22;37801;53.224;6.552;2022-10-31T09:07:57;12.30;99.90
51725;DHT22;37801;53.224;6.552;2022-10-31T09:10:24;12.30;99.90
51725;DHT22;37801;53.224;6.552;2022-10-31T09:13:07;12.30;99.90
51725;DHT22;37801;53.224;6.552;2022-10-31T09:15:34;12.30;99.90
51725;DHT22;37801;53.224;6.552;2022-10-31T09:18:00;12.40;99.90
51725;DHT22;37801;53.224;6.552;2022-10-31T09:20:27;12.40;99.90
51725;DHT22;37801;53.224;6.552;2022-10-31T09:23:08;12.40;99.90
51725;DHT22;37801;53.224;6.552;2022-10-31T09:25:35;12.40;99.90
51725;DHT22;37801;53.224;6.552;2022-10-31T09:28:03;12.40;99.90
51725;DHT22;37801;53.224;6.552;2022-10-31T09:30:31;12.40;99.90
51725;DHT22;37801;53.224;6.552;2022-10-31T09:33:01;12.40;99.90
51725;DHT22;37801;53.224;6.552;2022-10-31T09:35:28;12.40;99.90
51725;DHT22;37801;53.224;6.552;2022-10-31T09:37:58;12.50;99.90
51725;DHT22;37801;53.224;6.552;2022-10-31T09:43:03;12.50;99.90
51725;DHT22;37801;53.224;6.552;2022-10-31T09:45:52;12.50;99.90
51725;DHT22;37801;53.224;6.552;2022-10-31T09:51:29;12.60;99.90
51725;DHT22;37801;53.224;6.552;2022-10-31T09:54:06;12.60;99.90
51725;DHT22;37801;53.224;6.552;2022-10-31T09:56:36;12.60;99.90
51725;DHT22;37801;53.224;6.552;2022-10-31T09:59:05;12.70;99.90
51725;DHT22;37801;53.224;6.552;2022-10-31T10:06:57;12.70;99.90
51725;DHT22;37801;53.224;6.552;2022-10-31T10:09:27;12.70;99.90
51725;DHT22;37801;53.224;6.552;2022-10-31T10:17:21;12.80;99.90
51725;DHT22;37801;53.224;6.552;2022-10-31T10:19:59;12.80;99.90
51725;DHT22;37801;53.224;6.552;2022-10-31T10:25:15;12.90;99.90
51725;DHT22;37801;53.224;6.552;2022-10-31T10:27:54;13.00;99.90
51725;DHT22;37801;53.224;6.552;2022-10-31T10:30:28;13.00;99.90
51725;DHT22;37801;53.224;6.552;2022-10-31T10:33:00;13.10;99.90
51725;DHT22;37801;53.224;6.552;2022-10-31T10:40:45;13.30;99.90
51725;DHT22;37801;53.224;6.552;2022-10-31T10:43:21;13.30;99.90
51725;DHT22;37801;53.224;6.552;2022-10-31T10:46:04;13.30;99.90
51725;DHT22;37801;53.224;6.552;2022-10-31T10:59:50;13.40;99.90
51725;DHT22;37801;53.224;6.552;2022-10-31T11:02:27;13.40;99.90
51725;DHT22;37801;53.224;6.552;2022-10-31T11:04:58;13.40;99.90
51725;DHT22;37801;53.224;6.552;2022-10-31T11:07:23;13.40;99.90
51725;DHT22;37801;53.224;6.552;2022-10-31T11:09:49;13.40;99.90
51725;DHT22;37801;53.224;6.552;2022-10-31T11:12:17;13.40;99.90
51725;DHT22;37801;53.224;6.552;2022-10-31T11:14:51;13.50;99.90
51725;DHT22;37801;53.224;6.552;2022-10-31T11:17:27;13.60;99.90
51725;DHT22;37801;53.224;6.552;2022-10-31T11:22:30;13.60;99.90
51725;DHT22;37801;53.224;6.552;2022-10-31T11:24:56;13.70;99.90
51725;DHT22;37801;53.224;6.552;2022-10-31T11:27:24;13.70;99.90
51725;DHT22;37801;53.224;6.552;2022-10-31T11:29:50;13.70;99.90
51725;DHT22;37801;53.224;6.552;2022-10-31T11:32:22;13.70;99.90
51725;DHT22;37801;53.224;6.552;2022-10-31T11:34:55;13.70;99.90
51725;DHT22;37801;53.224;6.552;2022-10-31T11:37:24;13.70;99.90
51725;DHT22;37801;53.224;6.552;2022-10-31T11:40:03;13.70;99.90
51725;DHT22;37801;53.224;6.552;2022-10-31T11:42:37;13.70;99.90
51725;DHT22;37801;53.224;6.552;2022-10-31T11:45:14;13.70;99.90
51725;DHT22;37801;53.224;6.552;2022-10-31T11:47:43;13.70;99.90
51725;DHT22;37801;53.224;6.552;2022-10-31T11:50:15;13.70;99.90
51725;DHT22;37801;53.224;6.552;2022-10-31T11:52:43;13.80;99.90
51725;DHT22;37801;53.224;6.552;2022-10-31T11:57:52;13.90;99.90
51725;DHT22;37801;53.224;6.552;2022-10-31T12:00:36;13.90;99.90
51725;DHT22;37801;53.224;6.552;2022-10-31T12:06:13;14.10;99.90
51725;DHT22;37801;53.224;6.552;2022-10-31T12:08:43;14.10;99.90
51725;DHT22;37801;53.224;6.552;2022-10-31T12:14:13;14.10;99.90
51725;DHT22;37801;53.224;6.552;2022-10-31T12:17:11;14.20;99.90
51725;DHT22;37801;53.224;6.552;2022-10-31T12:22:52;14.20;99.90
51725;DHT22;37801;53.224;6.552;2022-10-31T12:25:35;14.30;99.90
51725;DHT22;37801;53.224;6.552;2022-10-31T12:30:49;14.30;99.90
51725;DHT22;37801;53.224;6.552;2022-10-31T12:36:02;14.40;99.90
51725;DHT22;37801;53.224;6.552;2022-10-31T12:38:47;14.40;99.90
51725;DHT22;37801;53.224;6.552;2022-10-31T12:57:51;14.50;99.90
51725;DHT22;37801;53.224;6.552;2022-10-31T13:00:19;14.50;99.90
51725;DHT22;37801;53.224;6.552;2022-10-31T13:05:34;14.50;99.90
51725;DHT22;37801;53.224;6.552;2022-10-31T13:08:15;14.50;99.90
51725;DHT22;37801;53.224;6.552;2022-10-31T13:10:44;14.50;99.90
51725;DHT22;37801;53.224;6.552;2022-10-31T13:13:20;14.50;99.90
51725;DHT22;37801;53.224;6.552;2022-10-31T13:15:56;14.60;99.90
51725;DHT22;37801;53.224;6.552;2022-10-31T13:21:23;14.50;99.90
51725;DHT22;37801;53.224;6.552;2022-10-31T13:23:51;14.50;99.90
51725;DHT22;37801;53.224;6.552;2022-10-31T13:26:43;14.40;99.90
51725;DHT22;37801;53.224;6.552;2022-10-31T13:31:42;14.40;99.90
51725;DHT22;37801;53.224;6.552;2022-10-31T13:34:39;14.40;99.90
51725;DHT22;37801;53.224;6.552;2022-10-31T13:42:57;14.40;99.90
51725;DHT22;37801;53.224;6.552;2022-10-31T13:45:25;14.50;99.90
51725;DHT22;37801;53.224;6.552;2022-10-31T13:48:17;14.50;99.90
51725;DHT22;37801;53.224;6.552;2022-10-31T13:50:59;14.50;99.90
51725;DHT22;37801;53.224;6.552;2022-10-31T13:58:34;14.60;99.90
51725;DHT22;37801;53.224;6.552;2022-10-31T14:03:39;14.60;99.90
51725;DHT22;37801;53.224;6.552;2022-10-31T14:06:07;14.60;99.90
51725;DHT22;37801;53.224;6.552;2022-10-31T14:08:36;14.60;99.90
51725;DHT22;37801;53.224;6.552;2022-10-31T14:11:03;14.60;99.90
51725;DHT22;37801;53.224;6.552;2022-10-31T14:13:42;14.60;99.90
51725;DHT22;37801;53.224;6.552;2022-10-31T14:16:30;14.60;99.90
51725;DHT22;37801;53.224;6.552;2022-10-31T14:19:00;14.60;99.90
51725;DHT22;37801;53.224;6.552;2022-10-31T14:21:27;14.60;99.90
51725;DHT22;37801;53.224;6.552;2022-10-31T14:23:54;14.50;99.90
51725;DHT22;37801;53.224;6.552;2022-10-31T14:28:54;14.50;99.90
51725;DHT22;37801;53.224;6.552;2022-10-31T14:31:32;14.50;99.90
51725;DHT22;37801;53.224;6.552;2022-10-31T14:36:50;14.50;99.90
51725;DHT22;37801;53.224;6.552;2022-10-31T14:39:25;14.50;99.90
51725;DHT22;37801;53.224;6.552;2022-10-31T14:44:51;14.50;99.90
51725;DHT22;37801;53.224;6.552;2022-10-31T14:47:36;14.50;99.90
51725;DHT22;37801;53.224;6.552;2022-10-31T14:50:09;14.50;99.90
51725;DHT22;37801;53.224;6.552;2022-10-31T14:52:38;14.50;99.90
51725;DHT22;37801;53.224;6.552;2022-10-31T14:55:07;14.50;99.90
51725;DHT22;37801;53.224;6.552;2022-10-31T14:57:37;14.50;99.90
51725;DHT22;37801;53.224;6.552;2022-10-31T15:00:17;14.60;99.90
51725;DHT22;37801;53.224;6.552;2022-10-31T15:03:07;14.50;99.90
51725;DHT22;37801;53.224;6.552;2022-10-31T15:05:41;14.50;99.90
51725;DHT22;37801;53.224;6.552;2022-10-31T15:08:14;14.50;99.90
51725;DHT22;37801;53.224;6.552;2022-10-31T15:10:50;14.50;99.90
51725;DHT22;37801;53.224;6.552;2022-10-31T15:13:21;14.50;99.90
51725;DHT22;37801;53.224;6.552;2022-10-31T15:15:48;14.50;99.90
51725;DHT22;37801;53.224;6.552;2022-10-31T15:18:20;14.40;99.90
51725;DHT22;37801;53.224;6.552;2022-10-31T15:20:46;14.40;99.90
51725;DHT22;37801;53.224;6.552;2022-10-31T15:23:27;14.40;99.90
51725;DHT22;37801;53.224;6.552;2022-10-31T15:26:01;14.30;99.90
51725;DHT22;37801;53.224;6.552;2022-10-31T15:28:29;14.30;99.90
51725;DHT22;37801;53.224;6.552;2022-10-31T15:31:00;14.30;99.90
51725;DHT22;37801;53.224;6.552;2022-10-31T15:33:29;14.30;99.90
51725;DHT22;37801;53.224;6.552;2022-10-31T15:35:59;14.20;99.90
51725;DHT22;37801;53.224;6.552;2022-10-31T15:38:26;14.20;99.90
51725;DHT22;37801;53.224;6.552;2022-10-31T15:41:05;14.20;99.90
51725;DHT22;37801;53.224;6.552;2022-10-31T15:43:44;14.20;99.90
51725;DHT22;37801;53.224;6.552;2022-10-31T15:46:11;14.20;99.90
51725;DHT22;37801;53.224;6.552;2022-10-31T15:48:37;14.20;99.90
51725;DHT22;37801;53.224;6.552;2022-10-31T15:51:04;14.20;99.90
51725;DHT22;37801;53.224;6.552;2022-10-31T15:56:11;14.20;99.90
51725;DHT22;37801;53.224;6.552;2022-10-31T15:58:46;14.20;99.90
51725;DHT22;37801;53.224;6.552;2022-10-31T16:01:21;14.20;99.90
51725;DHT22;37801;53.224;6.552;2022-10-31T16:06:37;14.20;99.90
51725;DHT22;37801;53.224;6.552;2022-10-31T16:09:18;14.20;99.90
51725;DHT22;37801;53.224;6.552;2022-10-31T16:11:46;14.10;99.90
51725;DHT22;37801;53.224;6.552;2022-10-31T16:16:51;14.10;99.90
51725;DHT22;37801;53.224;6.552;2022-10-31T16:19:23;14.20;99.90
51725;DHT22;37801;53.224;6.552;2022-10-31T16:22:11;14.10;99.90
51725;DHT22;37801;53.224;6.552;2022-10-31T16:24:58;14.20;99.90
51725;DHT22;37801;53.224;6.552;2022-10-31T16:27:28;14.10;99.90
51725;DHT22;37801;53.224;6.552;2022-10-31T16:29:56;14.10;99.90
51725;DHT22;37801;53.224;6.552;2022-10-31T16:32:53;14.10;99.90
51725;DHT22;37801;53.224;6.552;2022-10-31T16:35:31;14.10;99.90
51725;DHT22;37801;53.224;6.552;2022-10-31T16:37:57;14.00;99.90
51725;DHT22;37801;53.224;6.552;2022-10-31T16:40:23;14.10;99.90
51725;DHT22;37801;53.224;6.552;2022-10-31T16:42:50;14.00;99.90
51725;DHT22;37801;53.224;6.552;2022-10-31T16:45:29;14.00;99.90
51725;DHT22;37801;53.224;6.552;2022-10-31T16:48:03;14.00;99.90
51725;DHT22;37801;53.224;6.552;2022-10-31T16:50:29;14.00;99.90
51725;DHT22;37801;53.224;6.552;2022-10-31T16:52:55;14.00;99.90
51725;DHT22;37801;53.224;6.552;2022-10-31T16:55:21;14.00;99.90
51725;DHT22;37801;53.224;6.552;2022-10-31T16:57:52;13.90;99.90
51725;DHT22;37801;53.224;6.552;2022-10-31T17:00:24;13.90;99.90
51725;DHT22;37801;53.224;6.552;2022-10-31T17:02:51;13.90;99.90
51725;DHT22;37801;53.224;6.552;2022-10-31T17:05:19;13.90;99.90
51725;DHT22;37801;53.224;6.552;2022-10-31T17:07:45;13.90;99.90
51725;DHT22;37801;53.224;6.552;2022-10-31T17:10:12;13.90;99.90
51725;DHT22;37801;53.224;6.552;2022-10-31T17:12:41;13.90;99.90
51725;DHT22;37801;53.224;6.552;2022-10-31T17:15:21;13.90;99.90
51725;DHT22;37801;53.224;6.552;2022-10-31T17:17:48;13.90;99.90
51725;DHT22;37801;53.224;6.552;2022-10-31T17:20:23;13.90;99.90
51725;DHT22;37801;53.224;6.552;2022-10-31T17:22:49;13.90;99.90
51725;DHT22;37801;53.224;6.552;2022-10-31T17:25:21;13.80;99.90
51725;DHT22;37801;53.224;6.552;2022-10-31T17:27:48;13.90;99.90
51725;DHT22;37801;53.224;6.552;2022-10-31T17:30:14;13.80;99.90
51725;DHT22;37801;53.224;6.552;2022-10-31T17:32:41;13.90;99.90
51725;DHT22;37801;53.224;6.552;2022-10-31T17:35:08;13.90;99.90
51725;DHT22;37801;53.224;6.552;2022-10-31T17:37:34;13.80;99.90
51725;DHT22;37801;53.224;6.552;2022-10-31T17:40:00;13.90;99.90
51725;DHT22;37801;53.224;6.552;2022-10-31T17:42:26;13.90;99.90
51725;DHT22;37801;53.224;6.552;2022-10-31T17:44:52;13.80;99.90
51725;DHT22;37801;53.224;6.552;2022-10-31T17:47:17;13.80;99.90
51725;DHT22;37801;53.224;6.552;2022-10-31T17:49:43;13.90;99.90
51725;DHT22;37801;53.224;6.552;2022-10-31T17:52:09;13.90;99.90
51725;DHT22;37801;53.224;6.552;2022-10-31T17:54:35;13.80;99.90
51725;DHT22;37801;53.224;6.552;2022-10-31T17:57:00;13.90;99.90
51725;DHT22;37801;53.224;6.552;2022-10-31T17:59:26;13.80;99.90
51725;DHT22;37801;53.224;6.552;2022-10-31T18:01:55;13.80;99.90
51725;DHT22;37801;53.224;6.552;2022-10-31T18:04:20;13.80;99.90
51725;DHT22;37801;53.224;6.552;2022-10-31T18:06:46;13.80;99.90
51725;DHT22;37801;53.224;6.552;2022-10-31T18:09:14;13.90;99.90